createdAt,value
2023-01-28T00:01:17.536Z,11.25
2023-01-28T00:03:45.396Z,12.07
2023-01-28T00:06:14.751Z,11.45
2023-01-28T00:08:42.161Z,12.65
2023-01-28T00:11:11.967Z,12.43
2023-01-28T00:13:39.492Z,11.40
2023-01-28T00:16:11.479Z,11.73
2023-01-28T00:18:39.267Z,12.33
2023-01-28T00:21:10.124Z,12.00
2023-01-28T00:23:38.865Z,13.50
2023-01-28T00:26:14.354Z,12.18
2023-01-28T00:28:42.553Z,12.48
2023-01-28T00:31:22.335Z,12.63
2023-01-28T00:33:51.157Z,13.98
2023-01-28T00:36:19.659Z,13.02
2023-01-28T00:38:53.643Z,13.85
2023-01-28T00:41:22.655Z,13.65
2023-01-28T00:43:53.578Z,13.48
2023-01-28T00:46:22.031Z,13.55
2023-01-28T00:48:49.878Z,14.63
2023-01-28T00:51:20.161Z,14.38
2023-01-28T00:53:48.049Z,15.02
2023-01-28T00:56:18.081Z,14.52
2023-01-28T00:58:45.720Z,13.65
2023-01-28T01:01:16.287Z,13.45
2023-01-28T01:03:46.052Z,13.98
2023-01-28T01:06:15.251Z,14.77
2023-01-28T01:08:50.303Z,15.23
2023-01-28T01:11:18.118Z,15.02
2023-01-28T01:13:47.240Z,14.07
2023-01-28T01:16:16.728Z,14.73
2023-01-28T01:18:44.501Z,14.05
2023-01-28T01:21:18.023Z,13.55
2023-01-28T01:23:46.746Z,13.43
2023-01-28T01:26:14.754Z,13.18
2023-01-28T01:28:42.511Z,12.63
2023-01-28T01:31:16.159Z,13.00
2023-01-28T01:33:45.617Z,13.38
2023-01-28T01:36:15.122Z,13.00
2023-01-28T01:38:42.947Z,13.15
2023-01-28T01:41:16.769Z,12.35
2023-01-28T01:43:54.963Z,11.80
2023-01-28T01:46:44.469Z,12.30
2023-01-28T01:49:21.641Z,12.50
2023-01-28T01:51:55.026Z,12.27
2023-01-28T01:54:24.617Z,11.98
2023-01-28T01:56:52.447Z,12.55
2023-01-28T01:59:24.456Z,12.50
2023-01-28T02:01:52.416Z,13.67
2023-01-28T02:04:32.502Z,12.50
2023-01-28T02:07:01.136Z,12.68
2023-01-28T02:09:30.817Z,12.50
2023-01-28T02:12:02.073Z,11.82
2023-01-28T02:14:34.012Z,12.18
2023-01-28T02:17:02.200Z,13.07
2023-01-28T02:19:39.985Z,12.63
2023-01-28T02:22:22.434Z,12.98
2023-01-28T02:24:52.838Z,13.10
2023-01-28T02:27:42.001Z,12.30
2023-01-28T02:30:19.347Z,12.45
2023-01-28T02:33:04.733Z,13.05
2023-01-28T02:35:53.868Z,12.68
2023-01-28T02:38:31.705Z,12.63
2023-01-28T02:41:07.694Z,12.57
2023-01-28T02:43:40.552Z,12.52
2023-01-28T02:49:00.276Z,12.23
2023-01-28T02:51:36.274Z,12.88
2023-01-28T02:54:24.949Z,12.63
2023-01-28T02:57:07.567Z,12.00
2023-01-28T03:00:11.244Z,12.20
2023-01-28T03:02:43.932Z,12.10
2023-01-28T03:05:14.257Z,12.18
2023-01-28T03:07:42.040Z,12.95
2023-01-28T03:10:14.659Z,13.52
2023-01-28T03:13:02.703Z,13.25
2023-01-28T03:16:01.734Z,12.48
2023-01-28T03:19:08.769Z,12.25
2023-01-28T03:21:59.984Z,12.50
2023-01-28T03:24:51.988Z,12.68
2023-01-28T03:27:54.029Z,12.40
2023-01-28T03:30:56.087Z,11.05
2023-01-28T03:33:43.378Z,11.52
2023-01-28T03:36:29.575Z,11.77
2023-01-28T03:38:58.600Z,11.77
2023-01-28T03:41:27.312Z,11.77
2023-01-28T03:43:56.054Z,12.38
2023-01-28T03:46:23.851Z,12.52
2023-01-28T03:48:51.351Z,12.80
2023-01-28T03:51:18.745Z,12.45
2023-01-28T03:53:46.125Z,12.88
2023-01-28T03:56:18.396Z,12.35
2023-01-28T03:58:56.696Z,12.05
2023-01-28T04:01:27.304Z,12.18
2023-01-28T04:03:54.619Z,12.73
2023-01-28T04:06:21.989Z,11.82
2023-01-28T04:08:53.111Z,12.02
2023-01-28T04:11:21.516Z,12.27
2023-01-28T04:13:49.505Z,12.02
2023-01-28T04:16:18.840Z,12.00
2023-01-28T04:18:46.451Z,12.68
2023-01-28T04:21:13.776Z,12.80
2023-01-28T04:23:41.164Z,12.38
2023-01-28T04:26:08.731Z,12.23
2023-01-28T04:28:36.204Z,12.52
2023-01-28T04:31:03.712Z,12.50
2023-01-28T04:33:31.227Z,12.30
2023-01-28T04:35:58.703Z,12.07
2023-01-28T04:38:26.132Z,12.55
2023-01-28T04:40:54.382Z,12.63
2023-01-28T04:43:22.564Z,12.38
2023-01-28T04:45:51.383Z,12.90
2023-01-28T04:48:18.770Z,11.95
2023-01-28T04:50:46.555Z,13.40
2023-01-28T04:53:14.229Z,11.88
2023-01-28T04:55:41.673Z,11.45
2023-01-28T04:58:09.199Z,12.15
2023-01-28T05:00:36.644Z,11.48
2023-01-28T05:03:04.165Z,11.52
2023-01-28T05:05:31.616Z,12.60
2023-01-28T05:07:59.751Z,11.57
2023-01-28T05:10:27.984Z,12.23
2023-01-28T05:12:55.594Z,11.63
2023-01-28T05:15:23.201Z,12.38
2023-01-28T05:17:50.665Z,11.55
2023-01-28T05:20:18.185Z,11.00
2023-01-28T05:22:45.560Z,11.23
2023-01-28T05:25:13.399Z,10.68
2023-01-28T05:27:40.886Z,11.02
2023-01-28T05:30:09.015Z,11.18
2023-01-28T05:32:39.259Z,11.27
2023-01-28T05:35:07.108Z,12.00
2023-01-28T05:37:34.642Z,11.90
2023-01-28T05:40:01.994Z,11.98
2023-01-28T05:42:29.452Z,12.43
2023-01-28T05:44:56.784Z,12.48
2023-01-28T05:47:30.225Z,12.23
2023-01-28T05:49:57.638Z,12.02
2023-01-28T05:52:25.060Z,12.60
2023-01-28T05:54:52.529Z,13.95
2023-01-28T05:57:19.863Z,12.98
2023-01-28T05:59:47.316Z,13.70
2023-01-28T06:02:14.694Z,12.35
2023-01-28T06:04:42.013Z,10.60
2023-01-28T06:07:09.437Z,10.52
2023-01-28T06:09:36.803Z,10.55
2023-01-28T06:12:04.277Z,10.68
2023-01-28T06:14:31.695Z,10.25
2023-01-28T06:16:59.081Z,10.32
2023-01-28T06:19:26.630Z,10.45
2023-01-28T06:21:54.301Z,9.48
2023-01-28T06:24:22.058Z,10.57
2023-01-28T06:26:55.501Z,10.98
2023-01-28T06:29:23.303Z,11.13
2023-01-28T06:31:51.291Z,10.95
2023-01-28T06:34:18.793Z,10.98
2023-01-28T06:36:46.532Z,10.73
2023-01-28T06:39:14.083Z,10.77
2023-01-28T06:41:41.443Z,11.60
2023-01-28T06:44:08.918Z,10.52
2023-01-28T06:46:36.392Z,10.73
2023-01-28T06:49:03.892Z,10.25
2023-01-28T06:51:31.451Z,10.25
2023-01-28T06:53:58.833Z,10.10
2023-01-28T06:56:29.441Z,9.07
2023-01-28T06:58:56.825Z,9.52
2023-01-28T07:01:24.362Z,10.20
2023-01-28T07:03:54.725Z,9.52
2023-01-28T07:06:22.125Z,10.20
2023-01-28T07:08:49.631Z,9.35
2023-01-28T07:11:17.209Z,10.15
2023-01-28T07:13:45.060Z,9.63
2023-01-28T07:16:12.527Z,9.40
2023-01-28T07:18:39.886Z,9.77
2023-01-28T07:21:07.240Z,9.23
2023-01-28T07:23:34.699Z,8.80
2023-01-28T07:26:03.531Z,9.07
2023-01-28T07:28:31.209Z,9.73
2023-01-28T07:30:58.735Z,9.13
2023-01-28T07:33:26.212Z,9.07
2023-01-28T07:35:53.743Z,9.35
2023-01-28T07:38:21.118Z,10.38
2023-01-28T07:40:48.694Z,9.35
2023-01-28T07:43:16.172Z,9.25
2023-01-28T07:45:43.764Z,8.95
2023-01-28T07:48:13.086Z,9.20
2023-01-28T07:50:41.140Z,10.23
2023-01-28T07:53:11.293Z,9.70
2023-01-28T07:55:39.443Z,8.93
2023-01-28T07:58:08.184Z,9.20
2023-01-28T08:00:37.060Z,8.75
2023-01-28T08:03:06.866Z,9.32
2023-01-28T08:05:48.904Z,8.70
2023-01-28T08:08:16.593Z,8.40
2023-01-28T08:10:44.294Z,8.50
2023-01-28T08:13:15.832Z,8.65
2023-01-28T08:15:43.718Z,8.35
2023-01-28T08:18:15.216Z,8.63
2023-01-28T08:20:49.527Z,8.70
2023-01-28T08:23:29.281Z,8.68
2023-01-28T08:25:59.426Z,8.90
2023-01-28T08:28:27.178Z,8.55
2023-01-28T08:30:54.586Z,8.07
2023-01-28T08:33:22.188Z,7.72
2023-01-28T08:35:49.686Z,8.43
2023-01-28T08:38:17.949Z,8.60
2023-01-28T08:40:45.462Z,8.75
2023-01-28T08:43:13.058Z,8.65
2023-01-28T08:45:41.633Z,9.02
2023-01-28T08:48:12.520Z,9.00
2023-01-28T08:50:40.575Z,8.73
2023-01-28T08:53:13.616Z,8.50
2023-01-28T08:55:43.593Z,8.25
2023-01-28T08:58:13.198Z,8.70
2023-01-28T09:00:41.005Z,8.43
2023-01-28T09:03:08.886Z,8.40
2023-01-28T09:05:37.418Z,8.38
2023-01-28T09:08:10.678Z,8.57
2023-01-28T09:10:38.958Z,8.88
2023-01-28T09:13:11.558Z,9.25
2023-01-28T09:15:39.678Z,9.60
2023-01-28T09:18:07.500Z,9.38
2023-01-28T09:20:34.995Z,9.60
2023-01-28T09:23:02.995Z,10.07
2023-01-28T09:25:30.863Z,9.88
2023-01-28T09:27:58.707Z,10.02
2023-01-28T09:30:26.501Z,9.93
2023-01-28T09:32:55.085Z,10.35
2023-01-28T09:35:23.079Z,10.70
2023-01-28T09:37:50.567Z,9.90
2023-01-28T09:40:36.772Z,10.45
2023-01-28T09:43:57.228Z,11.00
2023-01-28T09:46:32.269Z,10.50
2023-01-28T09:49:01.585Z,11.80
2023-01-28T09:51:36.472Z,11.35
2023-01-28T09:54:27.063Z,12.07
2023-01-28T09:57:07.128Z,10.32
2023-01-28T09:59:36.358Z,11.07
2023-01-28T10:02:22.219Z,10.25
2023-01-28T10:04:57.419Z,10.85
2023-01-28T10:07:27.954Z,11.25
2023-01-28T10:10:07.624Z,10.95
2023-01-28T10:12:50.499Z,11.35
2023-01-28T10:15:48.121Z,11.82
2023-01-28T10:18:18.011Z,11.40
2023-01-28T10:21:11.041Z,11.73
2023-01-28T10:24:08.107Z,12.13
2023-01-28T10:26:38.663Z,11.75
2023-01-28T10:29:19.849Z,12.38
2023-01-28T10:32:03.115Z,11.95
2023-01-28T10:34:30.463Z,12.55
2023-01-28T10:37:00.395Z,12.40
2023-01-28T10:39:29.473Z,11.63
2023-01-28T10:41:58.532Z,11.70
2023-01-28T10:44:44.058Z,11.60
2023-01-28T10:47:15.211Z,11.10
2023-01-28T10:49:46.629Z,12.05
2023-01-28T10:52:17.430Z,10.98
2023-01-28T10:54:44.843Z,9.68
2023-01-28T10:57:16.088Z,10.50
2023-01-28T10:59:43.528Z,9.98
2023-01-28T11:02:41.185Z,10.48
2023-01-28T11:05:17.515Z,10.50
2023-01-28T11:07:45.611Z,9.70
2023-01-28T11:10:32.477Z,10.13
2023-01-28T11:13:02.867Z,10.20
2023-01-28T11:15:30.519Z,10.48
2023-01-28T11:18:10.710Z,10.98
2023-01-28T11:20:42.787Z,11.63
2023-01-28T11:23:28.847Z,10.60
2023-01-28T11:26:09.321Z,9.50
2023-01-28T11:28:41.482Z,10.18
2023-01-28T11:31:09.894Z,10.10
2023-01-28T11:33:46.248Z,10.13
2023-01-28T11:36:19.233Z,10.25
2023-01-28T11:39:00.384Z,9.82
2023-01-28T11:41:30.976Z,9.63
2023-01-28T11:43:59.681Z,9.38
2023-01-28T11:46:49.178Z,9.80
2023-01-28T11:49:25.878Z,9.07
2023-01-28T11:52:02.420Z,8.88
2023-01-28T11:54:55.536Z,8.73
2023-01-28T11:57:52.002Z,8.40
2023-01-28T12:00:31.594Z,8.65
2023-01-28T12:03:36.533Z,8.38
2023-01-28T12:06:37.869Z,8.70
2023-01-28T12:09:37.200Z,8.43
2023-01-28T12:12:39.482Z,8.68
2023-01-28T12:15:06.833Z,8.35
2023-01-28T12:17:43.404Z,7.47
2023-01-28T12:20:32.082Z,8.43
2023-01-28T12:23:02.120Z,7.85
2023-01-28T12:25:35.383Z,7.80
2023-01-28T12:28:25.786Z,8.30
2023-01-28T12:31:33.278Z,8.18
2023-01-28T12:34:44.670Z,8.38
2023-01-28T12:37:27.237Z,7.78
2023-01-28T12:40:10.296Z,8.48
2023-01-28T12:45:21.125Z,8.73
2023-01-28T12:47:55.504Z,9.25
2023-01-28T12:50:36.984Z,9.13
2023-01-28T12:53:41.181Z,9.05
2023-01-28T12:56:17.009Z,8.77
2023-01-28T12:58:55.335Z,8.60
2023-01-28T13:01:30.396Z,9.00
2023-01-28T13:04:24.799Z,8.30
2023-01-28T13:06:58.228Z,8.68
2023-01-28T13:09:27.247Z,8.60
2023-01-28T13:11:58.496Z,8.43
2023-01-28T13:14:31.093Z,8.32
2023-01-28T13:17:11.977Z,8.10
2023-01-28T13:19:42.755Z,8.40
2023-01-28T13:22:33.664Z,8.93
2023-01-28T13:25:24.432Z,8.55
2023-01-28T13:28:25.184Z,9.13
2023-01-28T13:30:53.579Z,8.48
2023-01-28T13:33:30.436Z,8.45
2023-01-28T13:35:58.048Z,7.70
2023-01-28T13:38:25.664Z,7.80
2023-01-28T13:41:01.263Z,7.72
2023-01-28T13:43:40.421Z,7.43
2023-01-28T13:46:15.758Z,7.57
2023-01-28T13:48:43.137Z,7.72
2023-01-28T13:51:29.763Z,7.80
2023-01-28T13:54:07.493Z,7.45
2023-01-28T13:56:59.406Z,8.13
2023-01-28T13:59:48.420Z,7.68
2023-01-28T14:02:24.987Z,7.60
2023-01-28T14:05:24.157Z,7.50
2023-01-28T14:08:32.807Z,7.28
2023-01-28T14:11:20.414Z,7.28
2023-01-28T14:14:11.997Z,7.25
2023-01-28T14:16:39.374Z,7.38
2023-01-28T14:19:12.381Z,7.32
2023-01-28T14:21:39.766Z,6.95
2023-01-28T14:24:14.080Z,6.97
2023-01-28T14:27:06.094Z,6.93
2023-01-28T14:29:44.121Z,6.90
2023-01-28T14:32:17.564Z,7.30
2023-01-28T14:34:46.108Z,12.10
2023-01-28T14:37:25.061Z,8.40
2023-01-28T14:39:57.950Z,7.78
2023-01-28T14:45:15.233Z,7.30
2023-01-28T14:48:00.634Z,7.50
2023-01-28T14:50:34.356Z,7.72
2023-01-28T14:53:18.035Z,7.50
2023-01-28T14:56:19.489Z,7.40
2023-01-28T14:59:13.390Z,7.00
2023-01-28T15:01:46.618Z,7.05
2023-01-28T15:04:29.876Z,7.22
2023-01-28T15:06:58.077Z,6.97
2023-01-28T15:09:25.774Z,7.40
2023-01-28T15:11:55.547Z,7.00
2023-01-28T15:14:33.196Z,7.13
2023-01-28T15:17:01.524Z,7.50
2023-01-28T15:19:35.074Z,7.35
2023-01-28T15:22:09.740Z,7.28
2023-01-28T15:24:37.716Z,7.32
2023-01-28T15:27:05.158Z,7.03
2023-01-28T15:29:37.273Z,7.63
2023-01-28T15:32:05.572Z,7.35
2023-01-28T15:34:32.966Z,7.35
2023-01-28T15:37:01.365Z,7.50
2023-01-28T15:39:29.907Z,7.55
2023-01-28T15:41:57.271Z,8.00
2023-01-28T15:44:31.630Z,8.05
2023-01-28T15:47:04.755Z,7.97
2023-01-28T15:49:36.991Z,8.30
2023-01-28T15:52:05.566Z,7.78
2023-01-28T15:54:32.986Z,7.93
2023-01-28T15:57:19.753Z,7.03
2023-01-28T15:59:47.490Z,8.00
2023-01-28T16:02:19.273Z,7.85
2023-01-28T16:05:10.828Z,7.82
2023-01-28T16:07:45.744Z,7.50
2023-01-28T16:10:22.313Z,7.20
2023-01-28T16:12:53.121Z,7.50
2023-01-28T16:15:21.733Z,7.75
2023-01-28T16:17:51.167Z,7.57
2023-01-28T16:20:27.613Z,7.68
2023-01-28T16:23:00.628Z,7.97
2023-01-28T16:25:31.778Z,8.02
2023-01-28T16:28:00.640Z,7.75
2023-01-28T16:30:28.694Z,8.95
2023-01-28T16:32:56.191Z,11.35
2023-01-28T16:35:29.814Z,11.10
2023-01-28T16:38:00.879Z,11.52
2023-01-28T16:40:28.388Z,11.88
2023-01-28T16:43:02.308Z,12.18
2023-01-28T16:45:32.257Z,12.68
2023-01-28T16:48:01.103Z,12.45
2023-01-28T16:50:28.486Z,13.48
2023-01-28T16:52:58.175Z,13.32
2023-01-28T16:55:25.737Z,12.80
2023-01-28T16:57:55.789Z,13.38
2023-01-28T17:00:25.872Z,12.45
2023-01-28T17:02:54.286Z,13.40
2023-01-28T17:05:23.273Z,12.05
2023-01-28T17:07:51.250Z,13.25
2023-01-28T17:10:21.837Z,13.23
2023-01-28T17:12:49.447Z,13.00
2023-01-28T17:15:18.705Z,12.88
2023-01-28T17:17:49.447Z,12.70
2023-01-28T17:20:17.203Z,13.05
2023-01-28T17:22:47.708Z,14.98
2023-01-28T17:25:15.595Z,13.15
2023-01-28T17:27:43.107Z,13.98
2023-01-28T17:30:11.117Z,13.07
2023-01-28T17:32:38.466Z,12.55
2023-01-28T17:35:06.460Z,12.98
2023-01-28T17:37:33.764Z,12.60
2023-01-28T17:40:01.132Z,11.82
2023-01-28T17:42:28.773Z,11.95
2023-01-28T17:44:57.183Z,12.85
2023-01-28T17:47:24.683Z,13.82
2023-01-28T17:49:52.016Z,12.40
2023-01-28T17:52:19.550Z,13.07
2023-01-28T17:54:46.906Z,11.75
2023-01-28T17:57:14.229Z,13.48
2023-01-28T17:59:41.846Z,13.05
2023-01-28T18:02:11.849Z,12.65
2023-01-28T18:04:40.577Z,12.75
2023-01-28T18:07:12.842Z,12.75
2023-01-28T18:09:47.941Z,13.30
2023-01-28T18:12:16.119Z,11.98
2023-01-28T18:14:46.003Z,12.90
2023-01-28T18:17:13.426Z,12.68
2023-01-28T18:19:40.949Z,12.45
2023-01-28T18:22:09.166Z,12.70
2023-01-28T18:24:36.539Z,12.65
2023-01-28T18:27:04.272Z,12.02
2023-01-28T18:29:32.213Z,12.23
2023-01-28T18:32:00.771Z,12.20
2023-01-28T18:34:31.075Z,12.20
2023-01-28T18:36:58.826Z,12.88
2023-01-28T18:39:32.252Z,12.48
2023-01-28T18:42:00.270Z,13.15
2023-01-28T18:44:30.277Z,12.90
2023-01-28T18:46:58.289Z,13.32
2023-01-28T18:49:25.862Z,13.25
2023-01-28T18:51:54.067Z,14.90
2023-01-28T18:54:28.152Z,14.75
2023-01-28T18:56:56.590Z,14.43
2023-01-28T18:59:24.346Z,14.13
2023-01-28T19:01:51.789Z,14.20
2023-01-28T19:04:19.284Z,15.23
2023-01-28T19:06:47.210Z,15.80
2023-01-28T19:09:15.839Z,14.88
2023-01-28T19:11:43.272Z,15.60
2023-01-28T19:14:13.240Z,16.17
2023-01-28T19:16:42.202Z,17.48
2023-01-28T19:19:10.033Z,18.50
2023-01-28T19:21:38.024Z,17.88
2023-01-28T19:24:09.897Z,18.15
2023-01-28T19:26:39.140Z,17.30
2023-01-28T19:29:12.081Z,18.23
2023-01-28T19:31:40.256Z,17.83
2023-01-28T19:34:10.573Z,18.15
2023-01-28T19:36:40.747Z,18.08
2023-01-28T19:39:11.653Z,18.33
2023-01-28T19:41:39.123Z,17.73
2023-01-28T19:44:07.130Z,18.67
2023-01-28T19:46:36.140Z,18.20
2023-01-28T19:49:09.017Z,18.08
2023-01-28T19:54:07.158Z,17.92
2023-01-28T19:56:36.191Z,17.38
2023-01-28T19:59:03.748Z,18.98
2023-01-28T20:01:32.423Z,17.98
2023-01-28T20:04:00.646Z,18.65
2023-01-28T20:06:29.687Z,18.55
2023-01-28T20:09:02.302Z,17.67
2023-01-28T20:11:30.084Z,17.58
2023-01-28T20:13:58.638Z,21.60
2023-01-28T20:16:31.729Z,18.20
2023-01-28T20:19:04.728Z,19.02
2023-01-28T20:21:32.809Z,18.95
2023-01-28T20:24:08.169Z,18.55
2023-01-28T20:26:37.511Z,18.95
2023-01-28T20:29:07.257Z,18.90
2023-01-28T20:31:35.231Z,17.83
2023-01-28T20:34:03.056Z,18.75
2023-01-28T20:36:30.888Z,18.85
2023-01-28T20:38:59.483Z,19.45
2023-01-28T20:41:27.725Z,19.02
2023-01-28T20:43:55.960Z,18.45
2023-01-28T20:46:31.916Z,18.50
2023-01-28T20:49:03.577Z,19.67
2023-01-28T20:51:34.624Z,18.50
2023-01-28T20:54:03.870Z,19.20
2023-01-28T20:56:34.155Z,20.98
2023-01-28T20:59:04.155Z,19.90
2023-01-28T21:01:36.275Z,19.55
2023-01-28T21:04:04.808Z,19.95
2023-01-28T21:06:32.763Z,19.80
2023-01-28T21:09:01.371Z,20.83
2023-01-28T21:11:29.992Z,21.05
2023-01-28T21:13:57.744Z,20.27
2023-01-28T21:16:25.583Z,21.25
2023-01-28T21:18:55.490Z,20.73
2023-01-28T21:21:25.794Z,20.67
2023-01-28T21:24:25.443Z,20.40
2023-01-28T21:26:52.875Z,21.33
2023-01-28T21:29:20.422Z,19.65
2023-01-28T21:31:47.897Z,20.23
2023-01-28T21:34:16.076Z,21.35
2023-01-28T21:36:43.802Z,20.73
2023-01-28T21:39:11.672Z,21.45
2023-01-28T21:41:39.234Z,20.80
2023-01-28T21:44:23.930Z,21.85
2023-01-28T21:46:53.121Z,22.17
2023-01-28T21:49:20.665Z,20.77
2023-01-28T21:51:48.100Z,21.48
2023-01-28T21:54:21.839Z,22.50
2023-01-28T21:56:50.716Z,21.98
2023-01-28T21:59:28.730Z,21.65
2023-01-28T22:02:00.871Z,21.33
2023-01-28T22:04:31.457Z,23.23
2023-01-28T22:06:59.407Z,21.50
2023-01-28T22:09:28.562Z,21.33
2023-01-28T22:11:56.274Z,21.77
2023-01-28T22:14:23.675Z,23.05
2023-01-28T22:16:51.162Z,21.63
2023-01-28T22:19:18.849Z,22.98
2023-01-28T22:21:46.938Z,22.05
2023-01-28T22:24:20.757Z,21.50
2023-01-28T22:26:48.506Z,21.95
2023-01-28T22:29:18.298Z,22.60
2023-01-28T22:31:46.589Z,22.38
2023-01-28T22:34:14.290Z,23.25
2023-01-28T22:36:41.650Z,23.25
2023-01-28T22:39:13.394Z,22.27
2023-01-28T22:41:41.616Z,22.55
2023-01-28T22:44:09.458Z,22.77
2023-01-28T22:46:38.118Z,23.13
2023-01-28T22:49:05.929Z,23.88
2023-01-28T22:51:35.331Z,24.50
2023-01-28T22:54:03.400Z,23.15
2023-01-28T22:56:31.807Z,24.65
2023-01-28T22:59:01.783Z,24.13
2023-01-28T23:01:30.008Z,24.65
2023-01-28T23:03:57.918Z,23.73
2023-01-28T23:06:26.540Z,23.98
2023-01-28T23:08:56.887Z,24.92
2023-01-28T23:11:28.202Z,24.45
2023-01-28T23:14:17.382Z,23.15
2023-01-28T23:17:03.525Z,23.50
2023-01-28T23:19:49.704Z,23.85
2023-01-28T23:22:50.201Z,23.63
2023-01-28T23:25:18.383Z,22.98
2023-01-28T23:27:45.789Z,23.60
2023-01-28T23:30:14.510Z,22.85
2023-01-28T23:32:47.836Z,24.85
2023-01-28T23:37:42.663Z,25.15
2023-01-28T23:40:12.186Z,22.67
2023-01-28T23:42:39.496Z,23.15
2023-01-28T23:45:07.727Z,22.23
2023-01-28T23:47:35.214Z,22.88
2023-01-28T23:50:02.950Z,23.33
2023-01-28T23:52:30.370Z,23.30
2023-01-28T23:54:57.744Z,23.70
2023-01-28T23:57:25.173Z,22.85
2023-01-28T23:59:52.587Z,22.52
